Time;durP1;ratioP1;P1;durP2;ratioP2;P2;SDS_P1;SDS_P2;PMS_P1;PMS_P2;Temp;Humidity;BMP_temperature;BMP_pressure;BME280_temperature;BME280_humidity;BME280_pressure;Samples;Min_cycle;Max_cycle;Signal;HPM_P1;HPM_P2
2022/09/08 00:00:51;;;;;;;1.60;1.48;;;;;;;18.95;82.66;99375.28;5116727;28;20493;-66
2022/09/08 00:03:24;;;;;;;1.37;1.17;;;;;;;18.95;82.58;99372.69;5116792;28;20489;-66
2022/09/08 00:05:58;;;;;;;1.52;1.27;;;;;;;18.95;82.75;99368.38;5115406;28;20393;-65
2022/09/08 00:08:27;;;;;;;2.58;1.92;;;;;;;18.98;82.91;99367.41;5116535;28;20055;-66
2022/09/08 00:10:59;;;;;;;1.83;1.60;;;;;;;19.00;82.65;99373.34;5116526;27;20047;-65
2022/09/08 00:13:31;;;;;;;1.02;0.93;;;;;;;19.03;82.75;99370.63;5116272;28;20047;-65
2022/09/08 00:16:03;;;;;;;1.48;1.38;;;;;;;19.06;82.67;99365.31;5116471;27;20071;-66
2022/09/08 00:18:41;;;;;;;0.90;0.88;;;;;;;19.08;82.52;99360.94;5116630;28;20052;-65
2022/09/08 00:21:10;;;;;;;1.75;1.52;;;;;;;19.07;82.64;99357.53;5116315;28;20481;-66
2022/09/08 00:23:38;;;;;;;2.40;1.33;;;;;;;19.10;82.41;99359.16;5116150;27;20051;-66
2022/09/08 00:26:07;;;;;;;0.80;0.80;;;;;;;19.11;82.47;99360.81;5116471;28;20036;-66
2022/09/08 00:28:36;;;;;;;3.20;1.73;;;;;;;19.12;82.39;99354.75;5115912;28;20056;-65
2022/09/08 00:31:05;;;;;;;1.73;1.35;;;;;;;19.12;82.37;99349.56;5116053;28;20294;-66
2022/09/08 00:33:35;;;;;;;1.95;1.20;;;;;;;19.09;82.28;99354.88;5115863;28;20124;-65
2022/09/08 00:36:06;;;;;;;2.88;1.83;;;;;;;19.14;82.32;99352.94;5115939;28;20043;-65
2022/09/08 00:38:35;;;;;;;2.08;1.40;;;;;;;19.14;82.27;99358.13;5115899;28;20058;-66
2022/09/08 00:41:09;;;;;;;1.52;1.25;;;;;;;19.11;82.26;99345.28;5115822;28;20075;-66
2022/09/08 00:43:40;;;;;;;1.42;1.08;;;;;;;19.03;82.08;99345.59;5116031;28;20389;-65
2022/09/08 00:46:24;;;;;;;1.27;1.05;;;;;;;19.08;82.42;99348.84;5115761;28;20151;-66
2022/09/08 00:48:59;;;;;;;1.33;1.05;;;;;;;19.09;82.35;99337.59;5115796;28;20127;-66
2022/09/08 00:51:32;;;;;;;1.33;1.10;;;;;;;19.08;82.28;99342.81;5116283;28;20047;-66
2022/09/08 00:54:02;;;;;;;1.33;1.17;;;;;;;19.07;82.29;99341.16;5115524;27;20093;-66
2022/09/08 00:56:31;;;;;;;1.95;1.35;;;;;;;19.04;82.38;99336.09;5115912;28;20076;-66
2022/09/08 00:59:02;;;;;;;0.85;0.85;;;;;;;19.02;82.37;99333.59;5115740;28;20048;-66
2022/09/08 01:01:32;;;;;;;2.42;1.50;;;;;;;19.00;82.40;99335.41;5115465;28;20047;-65
2022/09/08 01:04:04;;;;;;;1.65;1.42;;;;;;;19.00;82.45;99334.53;5115379;28;20078;-66
2022/09/08 01:14:59;;;;;;;1.20;1.10;;;;;;;18.91;82.84;99345.28;5115077;28;20279;-66
2022/09/08 01:17:30;;;;;;;1.70;1.23;;;;;;;18.91;82.89;99340.09;5115448;28;20035;-67
2022/09/08 01:20:01;;;;;;;1.08;0.98;;;;;;;18.94;82.92;99338.22;5115051;28;20139;-66
2022/09/08 01:22:56;;;;;;;1.15;1.05;;;;;;;18.99;82.93;99338.88;5115036;28;20047;-66
2022/09/08 01:25:49;;;;;;;5.57;1.70;;;;;;;19.02;82.88;99343.94;5112897;28;20047;-65
2022/09/08 01:28:23;;;;;;;2.60;2.15;;;;;;;19.04;82.82;99339.53;5114758;28;20378;-66
2022/09/08 01:30:54;;;;;;;1.48;1.38;;;;;;;19.05;83.01;99332.63;5115229;28;20055;-66
2022/09/08 01:33:23;;;;;;;2.30;1.77;;;;;;;19.11;82.74;99332.34;5115108;28;20051;-66
2022/09/08 01:35:51;;;;;;;0.95;0.95;;;;;;;19.13;82.58;99327.97;5114608;28;20494;-65
2022/09/08 01:38:20;;;;;;;1.85;1.55;;;;;;;19.13;82.67;99326.22;5114743;28;20039;-66
2022/09/08 01:40:49;;;;;;;2.10;1.10;;;;;;;19.12;82.73;99319.34;5114711;28;20453;-66
2022/09/08 01:43:19;;;;;;;1.13;0.80;;;;;;;19.13;82.76;99321.03;5114650;28;20040;-66
2022/09/08 01:45:48;;;;;;;1.58;1.40;;;;;;;19.11;82.47;99322.00;5114990;28;20588;-66
2022/09/08 01:48:17;;;;;;;1.60;1.00;;;;;;;19.09;82.75;99318.66;5114579;28;20043;-66
2022/09/08 01:50:45;;;;;;;0.87;0.80;;;;;;;19.00;82.70;99308.69;5114954;28;20050;-66
2022/09/08 01:53:14;;;;;;;3.45;1.85;;;;;;;19.02;82.61;99322.38;5114730;28;20423;-66
2022/09/08 01:55:44;;;;;;;1.30;1.20;;;;;;;19.03;82.64;99311.97;5115110;28;20400;-66
2022/09/08 01:58:13;;;;;;;1.85;1.15;;;;;;;19.02;82.55;99310.31;5114387;28;20097;-66
2022/09/08 02:00:43;;;;;;;3.25;1.70;;;;;;;19.02;82.44;99297.38;5114374;28;20481;-65
2022/09/08 02:03:12;;;;;;;1.67;1.58;;;;;;;19.04;82.25;99294.72;5114336;28;20097;-66
2022/09/08 02:05:42;;;;;;;1.10;1.00;;;;;;;19.03;82.17;99304.22;5114245;27;20126;-66
2022/09/08 02:08:12;;;;;;;1.88;1.30;;;;;;;18.99;82.09;99296.63;5114271;28;20633;-66
2022/09/08 02:10:51;;;;;;;;;;;;;;;18.99;81.86;99296.63;5114583;28;20042;-66
2022/09/08 02:13:20;;;;;;;1.58;1.33;;;;;;;18.99;81.80;99297.50;5114475;28;19919;-66
2022/09/08 02:15:50;;;;;;;1.08;0.88;;;;;;;18.96;81.81;99297.59;5114079;28;20036;-66
2022/09/08 02:18:19;;;;;;;1.52;1.33;;;;;;;18.97;81.63;99288.09;5114215;28;20071;-66
2022/09/08 02:20:48;;;;;;;1.73;1.60;;;;;;;18.92;81.66;99290.03;5114433;28;20040;-65
2022/09/08 02:23:16;;;;;;;1.38;1.08;;;;;;;18.88;81.85;99289.34;5113898;28;20503;-66
2022/09/08 02:25:45;;;;;;;1.10;1.00;;;;;;;18.87;81.81;99284.22;5114305;28;20400;-66
2022/09/08 02:28:15;;;;;;;2.88;1.58;;;;;;;18.88;82.03;99285.91;5113761;28;20110;-66
2022/09/08 02:30:45;;;;;;;1.50;1.23;;;;;;;18.88;81.53;99275.56;5114368;28;20047;-66
2022/09/08 02:33:15;;;;;;;3.25;1.63;;;;;;;18.86;81.83;99274.78;5113905;28;20040;-66
2022/09/08 02:35:44;;;;;;;1.30;1.20;;;;;;;18.82;82.03;99274.06;5113928;28;20048;-66
2022/09/08 02:38:12;;;;;;;2.47;2.00;;;;;;;18.81;82.01;99271.53;5114190;28;20127;-66
2022/09/08 02:40:42;;;;;;;3.17;1.98;;;;;;;18.81;82.14;99281.88;5113900;28;20493;-66
2022/09/08 02:43:11;;;;;;;3.40;1.50;;;;;;;18.78;82.03;99266.47;5113803;28;20054;-66
2022/09/08 02:45:40;;;;;;;1.00;0.82;;;;;;;18.73;82.24;99272.69;5113825;28;20043;-66
2022/09/08 02:48:09;;;;;;;0.93;0.93;;;;;;;18.74;82.21;99278.69;5113719;28;20127;-66
2022/09/08 02:50:39;;;;;;;1.40;1.25;;;;;;;18.73;82.26;99279.59;5114060;28;20044;-66
2022/09/08 02:53:09;;;;;;;1.13;1.08;;;;;;;18.66;82.24;99266.09;5113990;28;20439;-66
2022/09/08 02:55:39;;;;;;;1.15;1.05;;;;;;;18.72;82.22;99278.75;5113703;28;20134;-66
2022/09/08 02:58:08;;;;;;;2.45;1.33;;;;;;;18.68;82.16;99266.88;5114123;28;20051;-66
2022/09/08 03:00:38;;;;;;;1.88;1.65;;;;;;;18.66;82.35;99271.25;5113657;28;20065;-66
2022/09/08 03:03:07;;;;;;;1.45;1.23;;;;;;;18.63;82.23;99279.13;5113981;28;20050;-66
2022/09/08 03:05:36;;;;;;;0.90;0.85;;;;;;;18.59;82.31;99277.56;5113642;28;20044;-66
2022/09/08 03:08:06;;;;;;;3.88;2.10;;;;;;;18.56;82.50;99277.69;5113843;28;20056;-66
2022/09/08 03:10:35;;;;;;;2.90;2.08;;;;;;;18.56;82.57;99272.53;5113657;28;20054;-66
2022/09/08 03:13:04;;;;;;;1.63;1.30;;;;;;;18.50;82.50;99259.00;5113825;28;20063;-66
2022/09/08 03:15:33;;;;;;;2.55;1.80;;;;;;;18.52;82.66;99264.94;5113524;28;20028;-66
2022/09/08 03:18:03;;;;;;;1.60;1.50;;;;;;;18.51;82.67;99269.28;5113746;28;20486;-66
2022/09/08 03:20:33;;;;;;;1.25;1.13;;;;;;;18.44;82.93;99262.63;5113521;28;20052;-66
2022/09/08 03:23:02;;;;;;;2.03;1.45;;;;;;;18.47;82.79;99270.31;5113498;28;20123;-67
2022/09/08 03:25:36;;;;;;;1.00;0.90;;;;;;;18.45;82.79;99269.47;5113438;28;20043;-65
2022/09/08 03:28:05;;;;;;;1.55;1.35;;;;;;;18.44;82.64;99270.38;5113246;28;20044;-66
2022/09/08 03:30:34;;;;;;;1.07;0.93;;;;;;;18.43;82.83;99260.94;5113431;28;20126;-66
2022/09/08 03:33:03;;;;;;;5.32;1.08;;;;;;;18.44;82.89;99257.47;5113731;28;20272;-66
2022/09/08 03:35:32;;;;;;;1.60;1.50;;;;;;;18.39;82.71;99264.56;5115237;28;20043;-66
2022/09/08 03:38:01;;;;;;;1.08;0.95;;;;;;;18.34;82.73;99260.44;5117056;28;20040;-66
2022/09/08 03:40:29;;;;;;;2.78;1.88;;;;;;;18.32;82.90;99270.00;5116993;28;20050;-66
2022/09/08 03:43:00;;;;;;;2.63;2.15;;;;;;;18.31;82.91;99261.41;5116959;28;20043;-66
2022/09/08 03:45:29;;;;;;;2.45;1.45;;;;;;;18.25;83.02;99269.41;5116966;28;20063;-67
2022/09/08 03:47:58;;;;;;;1.83;1.27;;;;;;;18.25;82.96;99271.16;5116937;27;20039;-66
2022/09/08 03:50:27;;;;;;;3.90;1.58;;;;;;;18.21;83.07;99280.75;5117075;28;20445;-66
2022/09/08 03:52:55;;;;;;;2.03;1.47;;;;;;;18.17;82.94;99276.59;5116807;27;20039;-66
2022/09/08 03:55:25;;;;;;;1.38;1.23;;;;;;;18.14;83.24;99268.97;5116703;28;20132;-66
2022/09/08 03:57:53;;;;;;;2.10;1.90;;;;;;;18.14;83.24;99266.38;5116777;28;20043;-66
2022/09/08 04:00:23;;;;;;;1.52;1.42;;;;;;;18.13;83.10;99256.97;5116629;28;20118;-66
2022/09/08 04:02:52;;;;;;;2.05;1.52;;;;;;;18.12;83.23;99250.09;5116927;28;20039;-66
2022/09/08 04:05:21;;;;;;;2.83;1.40;;;;;;;18.09;83.15;99255.41;5116476;28;20084;-66
2022/09/08 04:07:50;;;;;;;4.72;1.85;;;;;;;18.02;83.37;99254.78;5116490;28;20043;-66
2022/09/08 04:10:20;;;;;;;4.82;1.88;;;;;;;18.00;83.52;99255.72;5116380;28;20044;-66
2022/09/08 04:12:49;;;;;;;1.65;1.55;;;;;;;18.01;83.53;99252.25;5116807;28;20043;-66
2022/09/08 04:15:18;;;;;;;4.65;2.85;;;;;;;18.03;83.58;99250.47;5116274;28;20044;-66
2022/09/08 04:17:48;;;;;;;3.40;2.07;;;;;;;18.01;83.60;99234.19;5116339;28;20530;-66
2022/09/08 04:20:18;;;;;;;3.22;2.80;;;;;;;18.01;83.27;99239.34;5116473;28;20699;-66
2022/09/08 04:22:47;;;;;;;2.45;1.45;;;;;;;17.98;83.23;99247.19;5116238;28;20048;-66
2022/09/08 04:25:16;;;;;;;1.10;1.00;;;;;;;18.02;83.67;99248.75;5116187;28;20051;-67
2022/09/08 04:27:44;;;;;;;6.28;2.75;;;;;;;18.03;83.59;99240.97;5116105;28;20052;-66
2022/09/08 04:30:14;;;;;;;1.65;1.17;;;;;;;18.04;83.65;99237.47;5116367;28;20035;-66
2022/09/08 04:32:42;;;;;;;;;;;;;;;18.07;83.52;99229.63;5116672;28;20491;-69
2022/09/08 04:35:12;;;;;;;3.13;1.27;;;;;;;18.05;83.62;99233.16;5115877;28;19919;-66
2022/09/08 04:37:41;;;;;;;1.55;1.45;;;;;;;18.02;83.19;99233.25;5115935;28;20058;-67
2022/09/08 04:40:10;;;;;;;1.02;0.98;;;;;;;17.99;83.45;99236.84;5115806;28;20051;-67
2022/09/08 04:42:39;;;;;;;1.77;1.30;;;;;;;17.96;83.72;99238.69;5115714;28;20050;-67
2022/09/08 04:45:08;;;;;;;5.38;1.98;;;;;;;17.98;83.73;99247.19;5115534;28;20577;-67
2022/09/08 04:47:37;;;;;;;1.60;1.20;;;;;;;18.01;83.98;99247.09;5115187;28;20055;-67
2022/09/08 04:50:06;;;;;;;1.55;1.45;;;;;;;18.05;83.90;99253.81;5115735;28;20035;-66
2022/09/08 04:52:36;;;;;;;1.25;1.15;;;;;;;18.11;83.96;99252.75;5115604;28;20048;-67
2022/09/08 04:55:07;;;;;;;4.07;1.85;;;;;;;18.13;84.15;99251.78;5115253;28;20047;-66
2022/09/08 04:57:37;;;;;;;3.13;2.13;;;;;;;18.15;83.78;99254.31;5115641;28;20092;-66
2022/09/08 05:00:07;;;;;;;3.22;2.05;;;;;;;18.18;83.52;99239.56;5115365;28;20043;-66
2022/09/08 05:02:36;;;;;;;0.70;0.68;;;;;;;18.22;83.57;99241.09;5115439;28;20088;-67
2022/09/08 05:05:05;;;;;;;1.95;1.60;;;;;;;18.27;83.34;99249.53;5115720;28;20043;-66
2022/09/08 05:07:35;;;;;;;1.52;1.42;;;;;;;18.32;83.34;99252.78;5115318;28;20040;-67
2022/09/08 05:10:06;;;;;;;2.47;1.35;;;;;;;18.37;83.34;99240.53;5115630;28;20054;-66
2022/09/08 05:12:35;;;;;;;2.95;1.95;;;;;;;18.43;83.27;99242.84;5115257;28;20407;-67
2022/09/08 05:15:05;;;;;;;3.13;1.95;;;;;;;18.51;83.24;99238.25;5115333;28;20035;-66
2022/09/08 05:17:33;;;;;;;;;;;;;;;18.57;83.33;99232.81;5115844;28;20044;-66
2022/09/08 05:20:03;;;;;;;1.70;1.42;;;;;;;18.63;83.31;99230.00;5115338;28;19920;-66
2022/09/08 05:22:31;;;;;;;;;;;;;;;18.70;83.22;99234.03;5115465;28;20036;-66
2022/09/08 05:25:05;;;;;;;1.48;1.30;;;;;;;18.77;83.18;99238.94;5114985;28;20014;-67
2022/09/08 05:27:34;;;;;;;2.22;2.03;;;;;;;18.84;83.21;99236.03;5114964;28;20055;-68
2022/09/08 05:30:04;;;;;;;2.35;1.67;;;;;;;18.92;83.17;99246.91;5115231;27;20075;-66
2022/09/08 05:32:35;;;;;;;;;;;;;;;19.03;82.86;99246.44;5115512;28;20143;-66
2022/09/08 05:35:04;;;;;;;1.80;1.63;;;;;;;19.10;82.69;99246.13;5114689;28;19970;-67
2022/09/08 05:37:33;;;;;;;2.35;1.63;;;;;;;19.19;82.37;99252.69;5115141;28;20083;-67
2022/09/08 05:40:02;;;;;;;1.67;1.43;;;;;;;19.29;82.26;99253.97;5114760;28;20512;-66
2022/09/08 05:42:33;;;;;;;2.05;1.85;;;;;;;19.39;82.01;99244.91;5114542;28;20039;-67
2022/09/08 05:45:01;;;;;;;1.10;1.00;;;;;;;19.50;81.30;99236.69;5114701;28;20496;-67
2022/09/08 05:47:30;;;;;;;4.97;2.85;;;;;;;19.58;81.29;99229.44;5114565;28;20067;-66
2022/09/08 05:49:59;;;;;;;2.70;2.00;;;;;;;19.67;81.20;99235.06;5114895;27;20081;-67
2022/09/08 05:52:31;;;;;;;1.33;1.17;;;;;;;19.76;80.88;99231.19;5114903;28;20044;-66
2022/09/08 05:54:59;;;;;;;2.13;1.42;;;;;;;19.86;80.34;99225.53;5114448;28;20047;-67
2022/09/08 05:57:28;;;;;;;5.45;2.97;;;;;;;19.96;79.51;99231.16;5114249;28;20038;-64
2022/09/08 05:59:58;;;;;;;3.78;1.83;;;;;;;20.04;78.92;99227.28;5114336;28;20512;-65
2022/09/08 06:02:27;;;;;;;2.75;1.67;;;;;;;20.17;78.13;99224.13;5113749;28;20396;-65
2022/09/08 06:04:56;;;;;;;3.03;1.25;;;;;;;20.23;77.66;99221.28;5114194;28;20044;-65
2022/09/08 06:07:25;;;;;;;4.93;1.20;;;;;;;20.31;77.15;99216.56;5113907;28;20046;-66
2022/09/08 06:09:54;;;;;;;2.28;1.92;;;;;;;20.43;76.80;99213.38;5114196;28;20489;-64
2022/09/08 06:12:22;;;;;;;2.70;1.60;;;;;;;20.54;76.59;99208.50;5114056;28;20040;-65
2022/09/08 06:14:51;;;;;;;4.65;2.22;;;;;;;20.67;76.47;99205.25;5114042;28;20035;-65
2022/09/08 06:17:21;;;;;;;1.42;1.17;;;;;;;20.80;75.96;99205.50;5113996;28;20494;-65
2022/09/08 06:19:53;;;;;;;2.40;1.75;;;;;;;20.86;75.60;99199.13;5114016;28;20040;-65
2022/09/08 06:22:22;;;;;;;1.92;1.73;;;;;;;20.98;75.11;99194.19;5113879;28;20052;-65
2022/09/08 06:24:51;;;;;;;0.60;0.60;;;;;;;21.09;74.96;99197.09;5114391;28;20040;-65
2022/09/08 06:27:24;;;;;;;2.87;2.00;;;;;;;21.21;74.73;99188.66;5113855;28;20044;-65
2022/09/08 06:30:02;;;;;;;2.22;1.67;;;;;;;21.26;74.28;99194.47;5113943;28;20043;-64
2022/09/08 06:32:38;;;;;;;2.75;1.90;;;;;;;21.33;73.51;99185.44;5114072;28;20041;-64
2022/09/08 06:35:12;;;;;;;1.98;1.80;;;;;;;21.47;73.00;99183.88;5113773;28;20063;-65
2022/09/08 06:37:48;;;;;;;2.30;1.33;;;;;;;21.56;72.61;99180.78;5113956;28;20397;-64
2022/09/08 06:40:23;;;;;;;1.08;0.98;;;;;;;21.60;72.07;99182.28;5113897;28;20043;-65
2022/09/08 06:42:59;;;;;;;1.77;1.55;;;;;;;21.71;71.76;99174.78;5114169;28;20070;-66
2022/09/08 06:45:34;;;;;;;1.63;1.15;;;;;;;21.76;72.03;99177.97;5113812;28;20489;-65
2022/09/08 06:48:20;;;;;;;1.75;1.45;;;;;;;21.86;71.57;99174.81;5113780;28;20054;-65
2022/09/08 06:51:06;;;;;;;3.20;1.13;;;;;;;21.97;71.09;99167.28;5113536;28;20101;-65
2022/09/08 06:53:39;;;;;;;1.30;1.10;;;;;;;22.09;70.85;99163.16;5113722;28;20050;-65
2022/09/08 06:56:21;;;;;;;3.42;2.17;;;;;;;22.24;70.12;99149.31;5113609;28;20055;-65
2022/09/08 06:59:21;;;;;;;1.10;1.02;;;;;;;22.37;69.71;99155.47;5113499;28;20043;-65
2022/09/08 07:02:03;;;;;;;1.17;1.08;;;;;;;22.44;69.46;99138.59;5113673;28;20047;-65
2022/09/08 07:04:42;;;;;;;1.42;1.10;;;;;;;22.65;68.45;99144.34;5113660;28;20040;-65
2022/09/08 07:07:23;;;;;;;1.95;1.75;;;;;;;22.75;68.24;99149.88;5113821;28;20062;-65
2022/09/08 07:10:00;;;;;;;4.72;2.00;;;;;;;22.89;67.55;99142.06;5114983;28;20047;-65
2022/09/08 07:12:41;;;;;;;2.35;1.60;;;;;;;23.03;67.71;99139.47;5117349;28;20047;-66
2022/09/08 07:15:27;;;;;;;0.80;0.80;;;;;;;23.19;67.44;99145.44;5117144;28;20047;-66
2022/09/08 07:18:02;;;;;;;0.90;0.90;;;;;;;23.33;67.56;99148.03;5117743;28;20108;-65
2022/09/08 07:20:32;;;;;;;1.85;1.10;;;;;;;23.52;65.98;99140.78;5117510;28;20039;-64
2022/09/08 07:23:06;;;;;;;1.58;1.30;;;;;;;23.70;64.65;99146.63;5117329;28;20055;-65
2022/09/08 07:25:40;;;;;;;1.70;1.27;;;;;;;23.86;63.32;99153.38;5117261;28;20047;-65
2022/09/08 07:28:13;;;;;;;1.40;1.13;;;;;;;23.90;62.59;99151.41;5117027;28;20055;-66
2022/09/08 07:30:42;;;;;;;1.13;1.02;;;;;;;23.98;62.21;99147.38;5117151;28;20044;-65
2022/09/08 07:33:15;;;;;;;;;;;;;;;24.11;61.44;99146.63;5117888;28;20127;-65
2022/09/08 07:39:17;;;;;;;2.20;0.95;;;;;;;24.35;60.75;99134.63;4956784;28;20136;-66
2022/09/08 07:41:50;;;;;;;1.33;1.10;;;;;;;24.48;59.88;99128.47;4958102;28;20051;-66
2022/09/08 07:44:20;;;;;;;1.85;1.25;;;;;;;24.61;59.07;99129.34;4958520;28;20416;-67
2022/09/08 07:47:03;;;;;;;1.25;1.08;;;;;;;24.65;58.76;99132.56;4958630;28;20043;-66
2022/09/08 07:49:45;;;;;;;1.42;0.88;;;;;;;24.73;58.66;99138.13;4958572;28;20123;-65
2022/09/08 07:52:28;;;;;;;1.23;1.08;;;;;;;24.77;58.51;99144.84;4958208;28;20044;-66
2022/09/08 07:55:11;;;;;;;1.98;1.67;;;;;;;24.80;58.38;99149.00;4958454;28;20400;-65
2022/09/08 07:57:50;;;;;;;1.95;1.20;;;;;;;24.88;58.64;99162.41;4958116;29;20445;-67
2022/09/08 08:00:37;;;;;;;1.08;0.98;;;;;;;24.92;58.53;99161.25;4958406;28;20047;-66
2022/09/08 08:03:27;;;;;;;2.38;1.65;;;;;;;24.96;58.31;99167.91;4958531;28;20051;-67
2022/09/08 08:06:04;;;;;;;3.30;1.73;;;;;;;25.02;58.96;99164.91;4958145;28;20083;-66
2022/09/08 08:08:43;;;;;;;1.23;1.13;;;;;;;25.10;60.31;99181.72;4958445;28;20058;-66
2022/09/08 08:11:16;;;;;;;;;;;;;;;25.20;60.50;99182.78;4959005;28;20073;-65
2022/09/08 08:13:59;;;;;;;1.27;1.17;;;;;;;25.26;60.44;99187.59;4958344;28;20021;-66
2022/09/08 08:16:40;;;;;;;2.08;1.60;;;;;;;25.37;60.82;99188.63;4958537;28;20405;-65
2022/09/08 08:19:27;;;;;;;1.67;1.35;;;;;;;25.46;60.55;99185.41;4958218;29;20047;-66
2022/09/08 08:22:01;;;;;;;1.30;1.20;;;;;;;25.46;59.92;99191.47;4958681;28;20135;-65
2022/09/08 08:24:39;;;;;;;1.80;1.17;;;;;;;25.55;59.38;99187.38;4967422;28;20050;-66
2022/09/08 08:27:20;;;;;;;1.92;1.52;;;;;;;25.67;59.42;99171.69;4958559;28;20043;-66
2022/09/08 08:30:04;;;;;;;0.98;0.88;;;;;;;25.67;58.86;99168.22;4957620;28;20138;-65
2022/09/08 08:32:39;;;;;;;1.95;1.40;;;;;;;25.73;58.47;99159.94;4957804;28;20051;-65
2022/09/08 08:35:16;;;;;;;1.23;1.13;;;;;;;25.76;57.63;99159.72;4957782;29;20057;-67
2022/09/08 08:37:50;;;;;;;1.25;1.10;;;;;;;25.76;57.78;99164.97;4980995;28;20058;-65
2022/09/08 08:40:30;;;;;;;5.18;2.47;;;;;;;25.84;57.82;99162.63;5005393;28;20458;-65
2022/09/08 08:43:24;;;;;;;0.85;0.82;;;;;;;26.00;57.93;99157.97;5006568;28;20381;-67
2022/09/08 08:46:12;;;;;;;2.78;1.30;;;;;;;26.15;56.92;99162.13;4948047;28;20065;-66
2022/09/08 08:48:54;;;;;;;1.10;0.90;;;;;;;26.27;57.20;99156.00;5006834;28;20118;-66
2022/09/08 08:51:44;;;;;;;1.52;1.23;;;;;;;26.31;56.57;99152.22;5001775;28;20496;-66
2022/09/08 08:54:27;;;;;;;3.83;1.92;;;;;;;26.33;56.11;99155.53;4991997;28;20034;-65
2022/09/08 08:57:07;;;;;;;1.10;1.00;;;;;;;26.23;56.39;99143.22;5000766;28;20046;-67
2022/09/08 09:00:02;;;;;;;1.35;1.05;;;;;;;26.23;56.12;99154.53;4976384;28;20051;-65
2022/09/08 09:02:52;;;;;;;2.22;1.40;;;;;;;26.36;56.92;99146.63;5001524;28;20039;-67
2022/09/08 09:05:40;;;;;;;1.77;1.63;;;;;;;26.55;56.38;99128.63;5003482;28;20046;-65
2022/09/08 09:08:31;;;;;;;0.65;0.65;;;;;;;26.60;55.45;99127.31;4937651;28;20046;-65
2022/09/08 09:11:33;;;;;;;1.17;1.00;;;;;;;26.66;55.46;99126.00;4995506;28;20066;-66
2022/09/08 09:14:35;;;;;;;1.55;1.38;;;;;;;26.75;55.20;99119.25;4984378;28;20129;-66
2022/09/08 09:17:44;;;;;;;1.10;1.00;;;;;;;26.88;55.67;99109.53;4980438;28;20038;-66
2022/09/08 09:20:38;;;;;;;2.05;1.80;;;;;;;26.95;55.32;99106.34;4994779;28;20436;-67
2022/09/08 09:23:15;;;;;;;1.83;1.42;;;;;;;26.97;54.65;99108.84;4995108;28;20042;-65
2022/09/08 09:25:57;;;;;;;1.42;1.15;;;;;;;27.06;54.80;99108.97;4995418;28;20381;-66
2022/09/08 09:28:49;;;;;;;0.90;0.73;;;;;;;27.19;54.45;99114.09;4995139;28;20048;-65
2022/09/08 09:31:41;;;;;;;1.40;1.30;;;;;;;27.20;53.72;99110.53;4995427;28;20468;-66
2022/09/08 09:34:27;;;;;;;2.45;1.58;;;;;;;27.15;53.33;99113.50;4992172;28;20038;-65
2022/09/08 09:37:11;;;;;;;1.10;0.93;;;;;;;27.26;53.65;99099.53;4983614;28;20058;-64
2022/09/08 09:39:56;;;;;;;1.83;1.17;;;;;;;27.22;53.42;99092.88;4994838;28;20038;-64
2022/09/08 09:42:46;;;;;;;0.68;0.68;;;;;;;27.23;53.81;99090.13;4992996;28;20129;-65
2022/09/08 09:45:26;;;;;;;1.15;1.05;;;;;;;27.23;53.81;99098.00;4988620;28;20051;-65
2022/09/08 09:48:12;;;;;;;3.20;2.03;;;;;;;27.29;54.29;99099.31;4988348;28;20065;-65
2022/09/08 09:50:55;;;;;;;4.72;1.00;;;;;;;27.32;54.45;99100.84;4994757;28;20058;-65
2022/09/08 09:53:50;;;;;;;2.35;1.25;;;;;;;27.28;54.15;99095.03;4994666;28;20409;-65
2022/09/08 09:56:44;;;;;;;1.67;1.20;;;;;;;27.32;54.59;99098.25;4993354;28;20042;-66
2022/09/08 09:59:40;;;;;;;1.38;1.15;;;;;;;27.41;54.61;99093.13;4974758;28;20043;-66
2022/09/08 10:02:40;;;;;;;1.83;1.13;;;;;;;27.40;54.58;99096.72;4983153;28;20042;-65
2022/09/08 10:05:32;;;;;;;1.25;1.00;;;;;;;27.53;54.65;99086.91;4994512;28;20038;-65
2022/09/08 10:08:29;;;;;;;1.48;1.35;;;;;;;27.75;54.62;99092.13;4988483;28;20038;-66
2022/09/08 10:11:12;;;;;;;1.20;1.02;;;;;;;27.83;53.53;99089.69;4975621;28;20093;-65
2022/09/08 10:14:08;;;;;;;2.13;1.23;;;;;;;27.83;52.74;99079.19;4976154;28;20050;-65
2022/09/08 10:17:07;;;;;;;5.15;1.38;;;;;;;27.81;52.80;99091.63;4986725;28;20042;-65
2022/09/08 10:20:12;;;;;;;2.45;1.95;;;;;;;27.75;53.08;99086.88;4986784;28;20061;-67
2022/09/08 10:23:16;;;;;;;1.80;1.08;;;;;;;27.85;53.08;99082.56;4977584;28;20041;-66
2022/09/08 10:26:12;;;;;;;1.42;1.33;;;;;;;27.92;53.00;99073.22;4970959;28;20039;-67
2022/09/08 10:29:12;;;;;;;0.85;0.80;;;;;;;28.02;53.09;99078.59;4985574;28;20045;-66
2022/09/08 10:31:51;;;;;;;;;;;;;;;28.15;53.22;99073.16;4975108;28;20051;-66
2022/09/08 10:34:46;;;;;;;2.25;1.30;;;;;;;28.21;52.45;99062.16;4975344;28;19977;-67
2022/09/08 10:37:39;;;;;;;1.17;1.08;;;;;;;28.20;52.23;99068.34;4983062;28;20397;-67
2022/09/08 10:40:27;;;;;;;2.33;2.03;;;;;;;28.06;52.18;99066.03;4975083;28;20421;-66
2022/09/08 10:43:11;;;;;;;1.05;0.85;;;;;;;28.05;52.20;99072.25;4982150;28;20130;-66
2022/09/08 10:45:57;;;;;;;1.17;0.95;;;;;;;28.11;52.17;99071.75;4998849;28;20085;-69
2022/09/08 10:48:47;;;;;;;1.48;1.38;;;;;;;28.19;51.69;99070.16;4998924;28;20077;-65
2022/09/08 10:51:38;;;;;;;0.93;0.80;;;;;;;28.30;52.03;99062.22;4998879;28;20042;-67
2022/09/08 10:54:38;;;;;;;1.80;1.50;;;;;;;28.35;51.44;99057.44;4999018;28;20061;-66
2022/09/08 10:57:20;;;;;;;1.15;1.05;;;;;;;28.29;51.19;99049.25;4994714;28;20096;-67
2022/09/08 11:00:07;;;;;;;1.95;1.55;;;;;;;28.27;51.24;99053.75;5008590;28;20114;-66
2022/09/08 11:02:54;;;;;;;1.77;1.63;;;;;;;28.29;51.27;99050.03;5000071;28;20050;-66
2022/09/08 11:05:42;;;;;;;1.50;1.02;;;;;;;28.54;51.37;99054.09;4997857;28;20042;-66
2022/09/08 11:08:32;;;;;;;0.77;0.77;;;;;;;28.58;50.26;99044.97;4997831;28;20109;-68
2022/09/08 11:11:26;;;;;;;1.52;1.17;;;;;;;28.79;50.41;99063.38;4991329;28;20054;-67
2022/09/08 11:14:05;;;;;;;3.65;1.70;;;;;;;28.76;49.99;99058.38;4942119;28;20050;-66
2022/09/08 11:17:07;;;;;;;2.75;1.48;;;;;;;28.68;50.46;99051.16;4978577;28;20051;-67
2022/09/08 11:19:40;;;;;;;1.63;0.98;;;;;;;28.81;50.63;99057.03;4978426;28;20117;-67
2022/09/08 11:22:30;;;;;;;1.27;1.17;;;;;;;28.68;51.27;99051.16;4978054;28;20070;-66
2022/09/08 11:25:20;;;;;;;1.42;1.33;;;;;;;28.56;51.50;99057.41;4966615;28;20045;-65
2022/09/08 11:28:00;;;;;;;1.73;1.08;;;;;;;28.64;51.77;99060.25;4978080;28;20046;-66
2022/09/08 11:30:38;;;;;;;1.38;1.02;;;;;;;28.73;51.73;99051.59;4978291;28;20050;-66
2022/09/08 11:33:26;;;;;;;2.85;1.65;;;;;;;28.82;51.34;99053.44;4996321;28;20472;-66
2022/09/08 11:36:10;;;;;;;1.47;1.00;;;;;;;28.93;51.31;99055.97;4997330;28;20058;-67
2022/09/08 11:38:57;;;;;;;1.20;1.10;;;;;;;28.98;51.23;99048.53;4996736;28;20287;-67
2022/09/08 11:42:03;;;;;;;6.35;1.83;;;;;;;28.99;50.54;99060.69;4997271;28;20085;-68
2022/09/08 11:44:47;;;;;;;2.60;1.55;;;;;;;28.86;50.41;99062.72;4997603;28;20057;-69
2022/09/08 11:47:41;;;;;;;2.05;1.70;;;;;;;28.77;50.13;99049.56;4979992;28;20389;-66
2022/09/08 11:50:31;;;;;;;1.27;0.95;;;;;;;28.87;50.52;99046.00;4997337;28;20046;-67
2022/09/08 11:53:45;;;;;;;2.33;1.55;;;;;;;28.80;50.39;99050.09;4997490;28;20439;-66
2022/09/08 11:56:47;;;;;;;;;;;;;;;28.55;50.71;99050.50;4996424;28;20102;-67
2022/09/08 11:59:35;;;;;;;1.85;1.35;;;;;;;28.40;51.54;99042.13;4996746;28;19922;-66
2022/09/08 12:02:28;;;;;;;3.38;1.70;;;;;;;28.38;51.66;99049.31;4996534;28;20050;-66
2022/09/08 12:05:19;;;;;;;1.45;0.85;;;;;;;28.40;52.16;99047.38;4997007;28;20048;-66
2022/09/08 12:08:42;;;;;;;0.85;0.75;;;;;;;28.49;52.54;99061.50;4996481;28;20099;-66
2022/09/08 12:11:28;;;;;;;1.55;1.30;;;;;;;28.47;52.23;99053.78;4981176;28;20045;-66
2022/09/08 12:14:05;;;;;;;1.60;1.20;;;;;;;28.42;52.03;99055.13;4996469;28;20050;-66
2022/09/08 12:17:04;;;;;;;1.02;0.90;;;;;;;28.39;51.50;99060.63;4994091;28;20049;-66
2022/09/08 12:19:51;;;;;;;1.27;1.17;;;;;;;28.41;51.72;99058.72;4996813;28;20054;-66
2022/09/08 12:22:37;;;;;;;2.08;1.73;;;;;;;28.43;51.72;99051.53;4996574;28;20389;-66
2022/09/08 12:25:34;;;;;;;1.60;1.27;;;;;;;28.40;51.08;99055.25;4996743;28;20058;-65
2022/09/08 12:28:44;;;;;;;1.38;1.20;;;;;;;28.51;51.09;99038.56;4994164;28;20046;-67
2022/09/08 12:31:24;;;;;;;0.73;0.73;;;;;;;28.49;51.07;99035.25;5000329;28;20050;-66
2022/09/08 12:34:24;;;;;;;1.30;0.98;;;;;;;28.37;51.12;99036.28;4996304;28;20057;-65
2022/09/08 12:37:00;;;;;;;1.90;1.30;;;;;;;28.40;51.15;99015.03;4991634;28;20053;-66